Terminal Aerodrome Forecast
Issued by NWS

Home | Current Version | Previous Version | Text Only | Print | Product List | Glossary On
Versions: 1 2 3 4 5 6 7 8 9 10 11 12 13
000
FTUS41 KPHI 231141
TAFMIV
TAF
KMIV 231141Z 2312/2412 25004KT P6SM SCT060
     FM231300 29008KT P6SM FEW060
     FM231600 29010G18KT P6SM SCT050
      TEMPO 2320/2323 SHRA
     FM232300 24006KT P6SM SKC
     FM240500 VRB02KT 5SM BR SKC=

USA.gov is the U.S. government's official web portal to all federal, state and local government web resources and services.